sensor_id;sensor_type;location;lat;lon;timestamp;temperature;humidity
8340;DHT22;4207;49.314;7.162;2023-02-26T00:01:41;0.10;99.40
8340;DHT22;4207;49.314;7.162;2023-02-26T00:04:10;0.10;99.50
8340;DHT22;4207;49.314;7.162;2023-02-26T00:06:39;0.10;99.60
8340;DHT22;4207;49.314;7.162;2023-02-26T00:09:22;0.10;99.70
8340;DHT22;4207;49.314;7.162;2023-02-26T00:11:50;0.00;99.70
8340;DHT22;4207;49.314;7.162;2023-02-26T00:14:20;0.00;99.80
8340;DHT22;4207;49.314;7.162;2023-02-26T00:16:54;0.00;99.80
8340;DHT22;4207;49.314;7.162;2023-02-26T00:19:25;-0.10;99.90
8340;DHT22;4207;49.314;7.162;2023-02-26T00:21:54;0.00;99.90
8340;DHT22;4207;49.314;7.162;2023-02-26T00:24:22;-0.10;99.90
8340;DHT22;4207;49.314;7.162;2023-02-26T00:26:50;-0.10;99.90
8340;DHT22;4207;49.314;7.162;2023-02-26T00:29:21;-0.10;99.90
8340;DHT22;4207;49.314;7.162;2023-02-26T00:31:50;-0.10;99.90
8340;DHT22;4207;49.314;7.162;2023-02-26T00:34:18;-0.20;99.90
8340;DHT22;4207;49.314;7.162;2023-02-26T00:36:51;-0.20;99.90
8340;DHT22;4207;49.314;7.162;2023-02-26T00:39:34;-0.20;99.90
8340;DHT22;4207;49.314;7.162;2023-02-26T00:42:05;-0.20;99.90
8340;DHT22;4207;49.314;7.162;2023-02-26T00:44:35;-0.20;99.90
8340;DHT22;4207;49.314;7.162;2023-02-26T00:47:08;-0.20;99.90
8340;DHT22;4207;49.314;7.162;2023-02-26T00:49:49;-0.20;99.90
8340;DHT22;4207;49.314;7.162;2023-02-26T00:52:27;-0.20;99.90
8340;DHT22;4207;49.314;7.162;2023-02-26T00:54:58;-0.20;99.90
8340;DHT22;4207;49.314;7.162;2023-02-26T00:57:26;-0.20;99.90
8340;DHT22;4207;49.314;7.162;2023-02-26T00:59:56;-0.20;99.90
8340;DHT22;4207;49.314;7.162;2023-02-26T01:02:24;-0.20;99.90
8340;DHT22;4207;49.314;7.162;2023-02-26T01:04:53;-0.20;99.90
8340;DHT22;4207;49.314;7.162;2023-02-26T01:07:22;-0.20;99.90
8340;DHT22;4207;49.314;7.162;2023-02-26T01:09:52;-0.20;99.90
8340;DHT22;4207;49.314;7.162;2023-02-26T01:12:20;-0.30;99.90
8340;DHT22;4207;49.314;7.162;2023-02-26T01:14:49;-0.30;99.90
8340;DHT22;4207;49.314;7.162;2023-02-26T01:17:24;-0.30;99.90
8340;DHT22;4207;49.314;7.162;2023-02-26T01:19:53;-0.30;99.90
8340;DHT22;4207;49.314;7.162;2023-02-26T01:22:29;-0.30;99.90
8340;DHT22;4207;49.314;7.162;2023-02-26T01:25:01;-0.30;99.90
8340;DHT22;4207;49.314;7.162;2023-02-26T01:27:31;-0.40;99.90
8340;DHT22;4207;49.314;7.162;2023-02-26T01:29:59;-0.40;99.90
8340;DHT22;4207;49.314;7.162;2023-02-26T01:32:37;-0.40;99.90
8340;DHT22;4207;49.314;7.162;2023-02-26T01:35:16;-0.40;99.90
8340;DHT22;4207;49.314;7.162;2023-02-26T01:37:52;-0.40;99.90
8340;DHT22;4207;49.314;7.162;2023-02-26T01:40:35;-0.50;99.90
8340;DHT22;4207;49.314;7.162;2023-02-26T01:43:10;-0.30;99.90
8340;DHT22;4207;49.314;7.162;2023-02-26T01:45:53;-0.50;99.90
8340;DHT22;4207;49.314;7.162;2023-02-26T01:48:33;-0.50;99.90
8340;DHT22;4207;49.314;7.162;2023-02-26T01:51:03;-0.50;99.90
8340;DHT22;4207;49.314;7.162;2023-02-26T01:53:33;-0.50;99.90
8340;DHT22;4207;49.314;7.162;2023-02-26T01:56:05;-0.50;99.90
8340;DHT22;4207;49.314;7.162;2023-02-26T01:58:37;-0.50;99.90
8340;DHT22;4207;49.314;7.162;2023-02-26T02:01:06;-0.50;99.90
8340;DHT22;4207;49.314;7.162;2023-02-26T02:03:37;-0.50;99.90
8340;DHT22;4207;49.314;7.162;2023-02-26T02:06:08;-0.50;99.90
8340;DHT22;4207;49.314;7.162;2023-02-26T02:08:37;-0.50;99.90
8340;DHT22;4207;49.314;7.162;2023-02-26T02:11:09;-0.50;99.90
8340;DHT22;4207;49.314;7.162;2023-02-26T02:13:49;-0.50;99.90
8340;DHT22;4207;49.314;7.162;2023-02-26T02:16:28;-0.60;99.90
8340;DHT22;4207;49.314;7.162;2023-02-26T02:19:13;-0.60;99.90
8340;DHT22;4207;49.314;7.162;2023-02-26T02:22:02;-0.50;99.90
8340;DHT22;4207;49.314;7.162;2023-02-26T02:24:45;-0.50;99.90
8340;DHT22;4207;49.314;7.162;2023-02-26T02:27:23;-0.60;99.90
8340;DHT22;4207;49.314;7.162;2023-02-26T02:30:12;-0.60;99.90
8340;DHT22;4207;49.314;7.162;2023-02-26T02:32:50;-0.50;99.90
8340;DHT22;4207;49.314;7.162;2023-02-26T02:35:23;-0.50;99.90
8340;DHT22;4207;49.314;7.162;2023-02-26T02:37:56;-0.50;99.90
8340;DHT22;4207;49.314;7.162;2023-02-26T02:40:28;-0.50;99.90
8340;DHT22;4207;49.314;7.162;2023-02-26T02:43:01;-0.50;99.90
8340;DHT22;4207;49.314;7.162;2023-02-26T02:45:34;-0.50;99.90
8340;DHT22;4207;49.314;7.162;2023-02-26T02:48:09;-0.50;99.90
8340;DHT22;4207;49.314;7.162;2023-02-26T02:50:43;-0.50;99.90
8340;DHT22;4207;49.314;7.162;2023-02-26T02:53:16;-0.10;99.90
8340;DHT22;4207;49.314;7.162;2023-02-26T02:55:49;-0.50;99.90
8340;DHT22;4207;49.314;7.162;2023-02-26T02:58:22;-0.50;99.90
8340;DHT22;4207;49.314;7.162;2023-02-26T03:00:55;-0.50;99.90
8340;DHT22;4207;49.314;7.162;2023-02-26T03:03:30;-0.50;99.90
8340;DHT22;4207;49.314;7.162;2023-02-26T03:06:01;-0.50;99.90
8340;DHT22;4207;49.314;7.162;2023-02-26T03:08:33;-0.40;99.90
8340;DHT22;4207;49.314;7.162;2023-02-26T03:11:03;-0.40;99.90
8340;DHT22;4207;49.314;7.162;2023-02-26T03:13:32;-0.30;99.90
8340;DHT22;4207;49.314;7.162;2023-02-26T03:16:22;0.30;99.90
8340;DHT22;4207;49.314;7.162;2023-02-26T03:18:59;-0.30;99.90
8340;DHT22;4207;49.314;7.162;2023-02-26T03:21:37;-0.10;99.90
8340;DHT22;4207;49.314;7.162;2023-02-26T03:24:11;-0.20;99.90
8340;DHT22;4207;49.314;7.162;2023-02-26T03:26:45;-0.20;99.90
8340;DHT22;4207;49.314;7.162;2023-02-26T03:29:26;-0.20;99.90
8340;DHT22;4207;49.314;7.162;2023-02-26T03:31:58;-0.20;99.90
8340;DHT22;4207;49.314;7.162;2023-02-26T03:34:33;0.60;99.90
8340;DHT22;4207;49.314;7.162;2023-02-26T03:37:08;-0.30;99.90
8340;DHT22;4207;49.314;7.162;2023-02-26T03:39:40;0.30;99.90
8340;DHT22;4207;49.314;7.162;2023-02-26T03:42:16;-0.20;99.90
8340;DHT22;4207;49.314;7.162;2023-02-26T03:44:55;-0.20;99.90
8340;DHT22;4207;49.314;7.162;2023-02-26T03:47:25;-0.20;99.90
8340;DHT22;4207;49.314;7.162;2023-02-26T03:50:01;-0.20;99.90
8340;DHT22;4207;49.314;7.162;2023-02-26T03:52:41;-0.20;99.90
8340;DHT22;4207;49.314;7.162;2023-02-26T03:55:32;-0.20;99.90
8340;DHT22;4207;49.314;7.162;2023-02-26T03:58:22;-0.20;99.90
8340;DHT22;4207;49.314;7.162;2023-02-26T04:01:21;0.20;99.90
8340;DHT22;4207;49.314;7.162;2023-02-26T04:03:54;-0.30;99.90
8340;DHT22;4207;49.314;7.162;2023-02-26T04:06:26;-0.40;99.90
8340;DHT22;4207;49.314;7.162;2023-02-26T04:08:55;-0.40;99.90
8340;DHT22;4207;49.314;7.162;2023-02-26T04:11:24;-0.50;99.90
8340;DHT22;4207;49.314;7.162;2023-02-26T04:13:53;-0.50;99.90
8340;DHT22;4207;49.314;7.162;2023-02-26T04:16:21;0.00;99.90
8340;DHT22;4207;49.314;7.162;2023-02-26T04:18:50;-0.60;99.90
8340;DHT22;4207;49.314;7.162;2023-02-26T04:21:21;-0.60;99.90
8340;DHT22;4207;49.314;7.162;2023-02-26T04:23:51;-0.60;99.90
8340;DHT22;4207;49.314;7.162;2023-02-26T04:26:19;-0.70;99.90
8340;DHT22;4207;49.314;7.162;2023-02-26T04:28:47;-0.70;99.90
8340;DHT22;4207;49.314;7.162;2023-02-26T04:31:16;-0.70;99.90
8340;DHT22;4207;49.314;7.162;2023-02-26T04:33:44;-0.80;99.90
8340;DHT22;4207;49.314;7.162;2023-02-26T04:36:13;-0.80;99.90
8340;DHT22;4207;49.314;7.162;2023-02-26T04:38:41;-0.80;99.90
8340;DHT22;4207;49.314;7.162;2023-02-26T04:41:11;-0.80;99.90
8340;DHT22;4207;49.314;7.162;2023-02-26T04:43:41;-0.80;99.90
8340;DHT22;4207;49.314;7.162;2023-02-26T04:46:19;-0.90;99.90
8340;DHT22;4207;49.314;7.162;2023-02-26T04:48:47;-0.90;99.90
8340;DHT22;4207;49.314;7.162;2023-02-26T04:51:15;-0.90;99.90
8340;DHT22;4207;49.314;7.162;2023-02-26T04:53:44;-0.40;99.90
8340;DHT22;4207;49.314;7.162;2023-02-26T04:56:14;-1.00;99.90
8340;DHT22;4207;49.314;7.162;2023-02-26T04:58:43;-1.00;99.90
8340;DHT22;4207;49.314;7.162;2023-02-26T05:01:17;-1.00;99.90
8340;DHT22;4207;49.314;7.162;2023-02-26T05:03:45;-0.60;99.90
8340;DHT22;4207;49.314;7.162;2023-02-26T05:06:13;-1.00;99.90
8340;DHT22;4207;49.314;7.162;2023-02-26T05:08:41;-1.00;99.90
8340;DHT22;4207;49.314;7.162;2023-02-26T05:11:10;-0.90;99.90
8340;DHT22;4207;49.314;7.162;2023-02-26T05:13:39;-0.90;99.90
8340;DHT22;4207;49.314;7.162;2023-02-26T05:16:08;-1.00;99.90
8340;DHT22;4207;49.314;7.162;2023-02-26T05:18:36;-0.90;99.90
8340;DHT22;4207;49.314;7.162;2023-02-26T05:21:05;-0.90;99.90
8340;DHT22;4207;49.314;7.162;2023-02-26T05:23:34;-0.90;99.90
8340;DHT22;4207;49.314;7.162;2023-02-26T05:26:02;-0.90;99.90
8340;DHT22;4207;49.314;7.162;2023-02-26T05:28:30;-0.50;99.90
8340;DHT22;4207;49.314;7.162;2023-02-26T05:31:01;-0.90;99.90
8340;DHT22;4207;49.314;7.162;2023-02-26T05:33:30;-0.90;99.90
8340;DHT22;4207;49.314;7.162;2023-02-26T05:35:58;-0.80;99.90
8340;DHT22;4207;49.314;7.162;2023-02-26T05:38:26;-0.80;99.90
8340;DHT22;4207;49.314;7.162;2023-02-26T05:40:56;0.00;99.90
8340;DHT22;4207;49.314;7.162;2023-02-26T05:43:27;-0.80;99.90
8340;DHT22;4207;49.314;7.162;2023-02-26T05:45:56;-0.70;99.90
8340;DHT22;4207;49.314;7.162;2023-02-26T05:48:29;-0.80;99.90
8340;DHT22;4207;49.314;7.162;2023-02-26T05:50:57;-0.80;99.90
8340;DHT22;4207;49.314;7.162;2023-02-26T05:53:26;-0.80;99.90
8340;DHT22;4207;49.314;7.162;2023-02-26T05:55:54;-0.70;99.90
8340;DHT22;4207;49.314;7.162;2023-02-26T05:58:22;-0.80;99.90
8340;DHT22;4207;49.314;7.162;2023-02-26T06:00:50;-0.80;99.90
8340;DHT22;4207;49.314;7.162;2023-02-26T06:03:20;-0.90;99.90
8340;DHT22;4207;49.314;7.162;2023-02-26T06:05:50;-0.90;99.90
8340;DHT22;4207;49.314;7.162;2023-02-26T06:08:19;-0.90;99.90
8340;DHT22;4207;49.314;7.162;2023-02-26T06:10:47;-1.00;99.90
8340;DHT22;4207;49.314;7.162;2023-02-26T06:13:16;-1.00;99.90
8340;DHT22;4207;49.314;7.162;2023-02-26T06:15:48;-1.00;99.90
8340;DHT22;4207;49.314;7.162;2023-02-26T06:18:16;-1.00;99.90
8340;DHT22;4207;49.314;7.162;2023-02-26T06:20:45;-1.00;99.90
8340;DHT22;4207;49.314;7.162;2023-02-26T06:23:14;-0.80;99.90
8340;DHT22;4207;49.314;7.162;2023-02-26T06:25:42;-1.00;99.90
8340;DHT22;4207;49.314;7.162;2023-02-26T06:28:12;-1.00;99.90
8340;DHT22;4207;49.314;7.162;2023-02-26T06:30:40;-1.10;99.90
8340;DHT22;4207;49.314;7.162;2023-02-26T06:33:08;-1.10;99.90
8340;DHT22;4207;49.314;7.162;2023-02-26T06:35:36;-1.00;99.90
8340;DHT22;4207;49.314;7.162;2023-02-26T06:38:04;-1.00;99.90
8340;DHT22;4207;49.314;7.162;2023-02-26T06:40:34;-0.90;99.90
8340;DHT22;4207;49.314;7.162;2023-02-26T06:43:02;-0.90;99.90
8340;DHT22;4207;49.314;7.162;2023-02-26T06:45:30;-0.70;99.90
8340;DHT22;4207;49.314;7.162;2023-02-26T06:47:59;-0.70;99.90
8340;DHT22;4207;49.314;7.162;2023-02-26T06:50:27;-0.70;99.90
8340;DHT22;4207;49.314;7.162;2023-02-26T06:52:55;-0.70;99.90
8340;DHT22;4207;49.314;7.162;2023-02-26T06:55:23;-0.70;99.90
8340;DHT22;4207;49.314;7.162;2023-02-26T06:57:54;-0.70;99.90
8340;DHT22;4207;49.314;7.162;2023-02-26T07:00:23;-0.70;99.90
8340;DHT22;4207;49.314;7.162;2023-02-26T07:02:52;-0.80;99.90
8340;DHT22;4207;49.314;7.162;2023-02-26T07:05:20;-0.80;99.90
8340;DHT22;4207;49.314;7.162;2023-02-26T07:07:48;-0.80;99.90
8340;DHT22;4207;49.314;7.162;2023-02-26T07:10:17;-0.70;99.90
8340;DHT22;4207;49.314;7.162;2023-02-26T07:12:47;-0.60;99.90
8340;DHT22;4207;49.314;7.162;2023-02-26T07:15:16;-0.60;99.90
8340;DHT22;4207;49.314;7.162;2023-02-26T07:17:44;-0.50;99.90
8340;DHT22;4207;49.314;7.162;2023-02-26T07:20:13;-0.50;99.90
8340;DHT22;4207;49.314;7.162;2023-02-26T07:22:41;-0.40;99.90
8340;DHT22;4207;49.314;7.162;2023-02-26T07:25:10;-0.40;99.90
8340;DHT22;4207;49.314;7.162;2023-02-26T07:27:38;-0.40;99.90
8340;DHT22;4207;49.314;7.162;2023-02-26T07:30:10;-0.30;99.90
8340;DHT22;4207;49.314;7.162;2023-02-26T07:32:40;-0.30;99.90
8340;DHT22;4207;49.314;7.162;2023-02-26T07:35:09;0.00;99.90
8340;DHT22;4207;49.314;7.162;2023-02-26T07:37:37;-0.20;99.90
8340;DHT22;4207;49.314;7.162;2023-02-26T07:40:06;-0.10;99.90
8340;DHT22;4207;49.314;7.162;2023-02-26T07:42:35;-0.20;99.90
8340;DHT22;4207;49.314;7.162;2023-02-26T07:45:04;-0.20;99.90
8340;DHT22;4207;49.314;7.162;2023-02-26T07:47:33;-0.10;99.90
8340;DHT22;4207;49.314;7.162;2023-02-26T07:50:04;0.10;99.90
8340;DHT22;4207;49.314;7.162;2023-02-26T07:52:32;-0.10;99.90
8340;DHT22;4207;49.314;7.162;2023-02-26T07:55:01;0.70;99.90
8340;DHT22;4207;49.314;7.162;2023-02-26T07:57:29;0.00;99.90
8340;DHT22;4207;49.314;7.162;2023-02-26T07:59:57;-0.10;99.90
8340;DHT22;4207;49.314;7.162;2023-02-26T08:02:25;0.10;99.90
8340;DHT22;4207;49.314;7.162;2023-02-26T08:04:53;0.10;99.90
8340;DHT22;4207;49.314;7.162;2023-02-26T08:07:23;1.00;99.90
8340;DHT22;4207;49.314;7.162;2023-02-26T08:09:51;0.40;99.90
8340;DHT22;4207;49.314;7.162;2023-02-26T08:12:20;0.40;99.90
8340;DHT22;4207;49.314;7.162;2023-02-26T08:14:48;0.60;99.90
8340;DHT22;4207;49.314;7.162;2023-02-26T08:17:16;0.60;99.90
8340;DHT22;4207;49.314;7.162;2023-02-26T08:19:44;0.70;99.90
8340;DHT22;4207;49.314;7.162;2023-02-26T08:22:12;0.90;99.90
8340;DHT22;4207;49.314;7.162;2023-02-26T08:24:42;1.00;99.90
8340;DHT22;4207;49.314;7.162;2023-02-26T08:27:10;1.10;99.90
8340;DHT22;4207;49.314;7.162;2023-02-26T08:29:39;1.10;99.90
8340;DHT22;4207;49.314;7.162;2023-02-26T08:32:08;1.10;99.90
8340;DHT22;4207;49.314;7.162;2023-02-26T08:34:36;1.00;99.90
8340;DHT22;4207;49.314;7.162;2023-02-26T08:37:06;0.80;99.90
8340;DHT22;4207;49.314;7.162;2023-02-26T08:39:38;0.70;99.90
8340;DHT22;4207;49.314;7.162;2023-02-26T08:42:09;0.90;99.90
8340;DHT22;4207;49.314;7.162;2023-02-26T08:44:38;0.70;99.90
8340;DHT22;4207;49.314;7.162;2023-02-26T08:47:06;0.90;99.90
8340;DHT22;4207;49.314;7.162;2023-02-26T08:49:34;1.00;99.90
8340;DHT22;4207;49.314;7.162;2023-02-26T08:52:03;1.10;99.90
8340;DHT22;4207;49.314;7.162;2023-02-26T08:54:31;1.30;99.90
8340;DHT22;4207;49.314;7.162;2023-02-26T08:56:59;1.20;99.90
8340;DHT22;4207;49.314;7.162;2023-02-26T08:59:29;1.20;99.90
8340;DHT22;4207;49.314;7.162;2023-02-26T09:01:57;1.30;99.90
8340;DHT22;4207;49.314;7.162;2023-02-26T09:04:25;1.70;99.90
8340;DHT22;4207;49.314;7.162;2023-02-26T09:06:57;1.50;99.90
8340;DHT22;4207;49.314;7.162;2023-02-26T09:09:25;1.40;99.90
8340;DHT22;4207;49.314;7.162;2023-02-26T09:11:53;1.40;99.90
8340;DHT22;4207;49.314;7.162;2023-02-26T09:14:21;1.20;99.90
8340;DHT22;4207;49.314;7.162;2023-02-26T09:16:51;1.60;99.90
8340;DHT22;4207;49.314;7.162;2023-02-26T09:19:20;1.10;99.90
8340;DHT22;4207;49.314;7.162;2023-02-26T09:21:49;1.20;99.90
8340;DHT22;4207;49.314;7.162;2023-02-26T09:24:18;1.70;99.90
8340;DHT22;4207;49.314;7.162;2023-02-26T09:26:46;1.30;99.90
8340;DHT22;4207;49.314;7.162;2023-02-26T09:29:14;1.00;99.90
8340;DHT22;4207;49.314;7.162;2023-02-26T09:31:42;2.20;99.90
8340;DHT22;4207;49.314;7.162;2023-02-26T09:34:14;1.90;99.90
8340;DHT22;4207;49.314;7.162;2023-02-26T09:36:43;1.50;99.90
8340;DHT22;4207;49.314;7.162;2023-02-26T09:39:12;1.40;99.90
8340;DHT22;4207;49.314;7.162;2023-02-26T09:41:43;1.20;99.90
8340;DHT22;4207;49.314;7.162;2023-02-26T09:44:18;1.20;99.90
8340;DHT22;4207;49.314;7.162;2023-02-26T09:46:52;1.10;99.90
8340;DHT22;4207;49.314;7.162;2023-02-26T09:49:39;2.00;99.90
8340;DHT22;4207;49.314;7.162;2023-02-26T09:52:18;1.30;99.90
8340;DHT22;4207;49.314;7.162;2023-02-26T09:54:50;2.50;99.90
8340;DHT22;4207;49.314;7.162;2023-02-26T09:57:29;1.70;99.90
8340;DHT22;4207;49.314;7.162;2023-02-26T09:59:58;1.90;99.90
8340;DHT22;4207;49.314;7.162;2023-02-26T10:02:37;1.70;99.90
8340;DHT22;4207;49.314;7.162;2023-02-26T10:05:20;2.00;99.90
8340;DHT22;4207;49.314;7.162;2023-02-26T10:07:56;2.00;99.40
8340;DHT22;4207;49.314;7.162;2023-02-26T10:10:34;2.00;99.20
8340;DHT22;4207;49.314;7.162;2023-02-26T10:13:05;1.90;99.20
8340;DHT22;4207;49.314;7.162;2023-02-26T10:15:43;1.80;99.50
8340;DHT22;4207;49.314;7.162;2023-02-26T10:18:15;1.70;99.80
8340;DHT22;4207;49.314;7.162;2023-02-26T10:20:53;1.70;99.90
8340;DHT22;4207;49.314;7.162;2023-02-26T10:23:27;2.20;99.90
8340;DHT22;4207;49.314;7.162;2023-02-26T10:26:01;2.00;99.90
8340;DHT22;4207;49.314;7.162;2023-02-26T10:28:42;2.40;99.90
8340;DHT22;4207;49.314;7.162;2023-02-26T10:31:21;2.00;99.80
8340;DHT22;4207;49.314;7.162;2023-02-26T10:34:00;1.90;99.90
8340;DHT22;4207;49.314;7.162;2023-02-26T10:36:39;1.80;99.90
8340;DHT22;4207;49.314;7.162;2023-02-26T10:39:18;1.60;99.90
8340;DHT22;4207;49.314;7.162;2023-02-26T10:41:51;1.70;99.90
8340;DHT22;4207;49.314;7.162;2023-02-26T10:44:26;1.70;99.90
8340;DHT22;4207;49.314;7.162;2023-02-26T10:47:08;1.80;99.90
8340;DHT22;4207;49.314;7.162;2023-02-26T10:49:52;1.90;99.60
8340;DHT22;4207;49.314;7.162;2023-02-26T10:52:25;1.90;99.90
8340;DHT22;4207;49.314;7.162;2023-02-26T10:55:02;2.00;99.90
8340;DHT22;4207;49.314;7.162;2023-02-26T10:57:35;2.10;99.70
8340;DHT22;4207;49.314;7.162;2023-02-26T11:00:08;2.10;99.60
8340;DHT22;4207;49.314;7.162;2023-02-26T11:02:44;2.00;99.80
8340;DHT22;4207;49.314;7.162;2023-02-26T11:05:17;2.50;99.90
8340;DHT22;4207;49.314;7.162;2023-02-26T11:07:50;2.10;99.90
8340;DHT22;4207;49.314;7.162;2023-02-26T11:10:22;2.10;99.90
8340;DHT22;4207;49.314;7.162;2023-02-26T11:12:53;2.60;99.90
8340;DHT22;4207;49.314;7.162;2023-02-26T11:15:25;2.00;99.90
8340;DHT22;4207;49.314;7.162;2023-02-26T11:17:57;2.60;99.90
8340;DHT22;4207;49.314;7.162;2023-02-26T11:20:32;2.10;99.90
8340;DHT22;4207;49.314;7.162;2023-02-26T11:23:05;2.00;99.00
8340;DHT22;4207;49.314;7.162;2023-02-26T11:25:45;1.90;99.60
8340;DHT22;4207;49.314;7.162;2023-02-26T11:28:29;1.90;99.90
8340;DHT22;4207;49.314;7.162;2023-02-26T11:31:00;2.00;99.40
8340;DHT22;4207;49.314;7.162;2023-02-26T11:33:35;2.10;99.30
8340;DHT22;4207;49.314;7.162;2023-02-26T11:36:08;2.10;98.10
8340;DHT22;4207;49.314;7.162;2023-02-26T11:38:37;2.20;98.40
8340;DHT22;4207;49.314;7.162;2023-02-26T11:41:06;2.20;98.10
8340;DHT22;4207;49.314;7.162;2023-02-26T11:43:38;2.20;98.40
8340;DHT22;4207;49.314;7.162;2023-02-26T11:46:11;2.20;98.60
8340;DHT22;4207;49.314;7.162;2023-02-26T11:48:42;2.20;98.40
8340;DHT22;4207;49.314;7.162;2023-02-26T11:51:12;2.20;98.80
8340;DHT22;4207;49.314;7.162;2023-02-26T11:53:46;2.20;99.10
8340;DHT22;4207;49.314;7.162;2023-02-26T11:56:25;2.20;98.00
8340;DHT22;4207;49.314;7.162;2023-02-26T11:58:54;2.20;98.00
8340;DHT22;4207;49.314;7.162;2023-02-26T12:01:26;2.10;98.40
8340;DHT22;4207;49.314;7.162;2023-02-26T12:03:58;2.20;98.20
8340;DHT22;4207;49.314;7.162;2023-02-26T12:06:26;2.30;98.00
8340;DHT22;4207;49.314;7.162;2023-02-26T12:08:54;2.40;98.40
8340;DHT22;4207;49.314;7.162;2023-02-26T12:11:47;2.40;98.20
8340;DHT22;4207;49.314;7.162;2023-02-26T12:14:29;2.40;97.70
8340;DHT22;4207;49.314;7.162;2023-02-26T12:17:10;2.50;97.90
8340;DHT22;4207;49.314;7.162;2023-02-26T12:19:46;2.50;97.00
8340;DHT22;4207;49.314;7.162;2023-02-26T12:22:30;2.40;96.60
8340;DHT22;4207;49.314;7.162;2023-02-26T12:25:15;2.40;96.90
8340;DHT22;4207;49.314;7.162;2023-02-26T12:30:58;2.50;97.40
8340;DHT22;4207;49.314;7.162;2023-02-26T12:33:39;2.60;96.80
8340;DHT22;4207;49.314;7.162;2023-02-26T12:36:22;2.60;96.80
8340;DHT22;4207;49.314;7.162;2023-02-26T12:39:07;2.60;96.80
8340;DHT22;4207;49.314;7.162;2023-02-26T12:41:47;2.60;96.60
8340;DHT22;4207;49.314;7.162;2023-02-26T12:44:26;2.60;96.20
8340;DHT22;4207;49.314;7.162;2023-02-26T12:47:15;2.80;95.80
8340;DHT22;4207;49.314;7.162;2023-02-26T12:50:24;3.00;95.20
8340;DHT22;4207;49.314;7.162;2023-02-26T12:56:30;3.00;94.30
8340;DHT22;4207;49.314;7.162;2023-02-26T12:59:18;3.00;94.40
8340;DHT22;4207;49.314;7.162;2023-02-26T13:02:03;3.00;94.80
8340;DHT22;4207;49.314;7.162;2023-02-26T13:04:48;3.00;94.10
8340;DHT22;4207;49.314;7.162;2023-02-26T13:07:41;3.00;94.70
8340;DHT22;4207;49.314;7.162;2023-02-26T13:10:21;3.00;94.90
8340;DHT22;4207;49.314;7.162;2023-02-26T13:13:11;3.20;94.40
8340;DHT22;4207;49.314;7.162;2023-02-26T13:15:56;3.40;94.60
8340;DHT22;4207;49.314;7.162;2023-02-26T13:18:33;3.60;93.80
8340;DHT22;4207;49.314;7.162;2023-02-26T13:21:07;3.50;93.10
8340;DHT22;4207;49.314;7.162;2023-02-26T13:23:41;3.40;93.70
8340;DHT22;4207;49.314;7.162;2023-02-26T13:26:12;3.30;93.20
8340;DHT22;4207;49.314;7.162;2023-02-26T13:28:43;3.40;93.80
8340;DHT22;4207;49.314;7.162;2023-02-26T13:31:15;3.40;93.50
8340;DHT22;4207;49.314;7.162;2023-02-26T13:33:47;3.40;92.70
8340;DHT22;4207;49.314;7.162;2023-02-26T13:36:19;3.20;93.40
8340;DHT22;4207;49.314;7.162;2023-02-26T13:39:00;3.10;92.90
8340;DHT22;4207;49.314;7.162;2023-02-26T13:41:43;3.10;93.00
8340;DHT22;4207;49.314;7.162;2023-02-26T13:44:20;3.00;93.00
8340;DHT22;4207;49.314;7.162;2023-02-26T13:47:20;3.00;93.70
8340;DHT22;4207;49.314;7.162;2023-02-26T13:50:09;3.10;93.20
8340;DHT22;4207;49.314;7.162;2023-02-26T13:52:50;3.10;93.20
8340;DHT22;4207;49.314;7.162;2023-02-26T13:55:35;3.10;92.20
8340;DHT22;4207;49.314;7.162;2023-02-26T13:58:16;3.10;92.40
8340;DHT22;4207;49.314;7.162;2023-02-26T14:00:46;3.10;92.90
8340;DHT22;4207;49.314;7.162;2023-02-26T14:03:30;3.20;92.70
8340;DHT22;4207;49.314;7.162;2023-02-26T14:06:35;3.20;93.10
8340;DHT22;4207;49.314;7.162;2023-02-26T14:09:28;3.20;93.60
8340;DHT22;4207;49.314;7.162;2023-02-26T14:11:59;3.30;93.90
8340;DHT22;4207;49.314;7.162;2023-02-26T14:14:35;3.20;93.50
8340;DHT22;4207;49.314;7.162;2023-02-26T14:17:28;3.20;93.60
8340;DHT22;4207;49.314;7.162;2023-02-26T14:20:16;3.30;93.50
8340;DHT22;4207;49.314;7.162;2023-02-26T14:22:47;3.30;92.80
8340;DHT22;4207;49.314;7.162;2023-02-26T14:25:28;3.30;92.30
8340;DHT22;4207;49.314;7.162;2023-02-26T14:31:23;3.30;92.80
8340;DHT22;4207;49.314;7.162;2023-02-26T14:34:10;3.20;92.70
8340;DHT22;4207;49.314;7.162;2023-02-26T14:36:44;3.20;92.50
8340;DHT22;4207;49.314;7.162;2023-02-26T14:39:23;3.10;92.10
8340;DHT22;4207;49.314;7.162;2023-02-26T14:41:58;3.00;92.20
8340;DHT22;4207;49.314;7.162;2023-02-26T14:44:30;3.00;92.10
8340;DHT22;4207;49.314;7.162;2023-02-26T14:46:59;3.00;92.20
8340;DHT22;4207;49.314;7.162;2023-02-26T14:49:30;3.00;92.20
8340;DHT22;4207;49.314;7.162;2023-02-26T14:52:18;3.00;91.50
8340;DHT22;4207;49.314;7.162;2023-02-26T14:55:22;3.00;91.40
8340;DHT22;4207;49.314;7.162;2023-02-26T14:58:04;3.00;91.90
8340;DHT22;4207;49.314;7.162;2023-02-26T15:00:42;3.00;91.70
8340;DHT22;4207;49.314;7.162;2023-02-26T15:06:18;3.00;91.60
8340;DHT22;4207;49.314;7.162;2023-02-26T15:08:59;2.90;91.80
8340;DHT22;4207;49.314;7.162;2023-02-26T15:11:43;2.80;91.90
8340;DHT22;4207;49.314;7.162;2023-02-26T15:17:14;2.90;92.10
8340;DHT22;4207;49.314;7.162;2023-02-26T15:19:55;2.80;91.70
8340;DHT22;4207;49.314;7.162;2023-02-26T15:22:38;2.80;92.20
8340;DHT22;4207;49.314;7.162;2023-02-26T15:25:27;2.90;92.20
8340;DHT22;4207;49.314;7.162;2023-02-26T15:27:56;2.90;92.00
8340;DHT22;4207;49.314;7.162;2023-02-26T15:30:24;2.90;92.10
8340;DHT22;4207;49.314;7.162;2023-02-26T15:32:57;2.90;92.30
8340;DHT22;4207;49.314;7.162;2023-02-26T15:35:29;2.80;92.10
8340;DHT22;4207;49.314;7.162;2023-02-26T15:38:00;2.80;92.20
8340;DHT22;4207;49.314;7.162;2023-02-26T15:40:30;2.80;92.20
8340;DHT22;4207;49.314;7.162;2023-02-26T15:43:00;2.80;92.50
8340;DHT22;4207;49.314;7.162;2023-02-26T15:45:31;2.80;92.60
8340;DHT22;4207;49.314;7.162;2023-02-26T15:48:03;2.80;93.20
8340;DHT22;4207;49.314;7.162;2023-02-26T15:50:35;2.80;92.70
8340;DHT22;4207;49.314;7.162;2023-02-26T15:53:05;2.80;92.50
8340;DHT22;4207;49.314;7.162;2023-02-26T15:55:38;2.80;93.10
8340;DHT22;4207;49.314;7.162;2023-02-26T15:58:10;2.80;93.10
8340;DHT22;4207;49.314;7.162;2023-02-26T16:00:51;2.80;92.60
8340;DHT22;4207;49.314;7.162;2023-02-26T16:03:25;2.70;93.50
8340;DHT22;4207;49.314;7.162;2023-02-26T16:05:56;2.60;94.30
8340;DHT22;4207;49.314;7.162;2023-02-26T16:08:24;2.50;94.90
8340;DHT22;4207;49.314;7.162;2023-02-26T16:10:54;2.40;95.40
8340;DHT22;4207;49.314;7.162;2023-02-26T16:13:28;2.30;95.60
8340;DHT22;4207;49.314;7.162;2023-02-26T16:16:00;2.20;96.10
8340;DHT22;4207;49.314;7.162;2023-02-26T16:18:30;2.10;96.10
8340;DHT22;4207;49.314;7.162;2023-02-26T16:21:02;2.00;96.50
8340;DHT22;4207;49.314;7.162;2023-02-26T16:23:40;2.00;96.80
8340;DHT22;4207;49.314;7.162;2023-02-26T16:26:14;1.90;97.00
8340;DHT22;4207;49.314;7.162;2023-02-26T16:28:44;1.80;97.30
8340;DHT22;4207;49.314;7.162;2023-02-26T16:31:18;1.70;97.40
8340;DHT22;4207;49.314;7.162;2023-02-26T16:33:53;1.60;97.80
8340;DHT22;4207;49.314;7.162;2023-02-26T16:36:25;1.50;97.80
8340;DHT22;4207;49.314;7.162;2023-02-26T16:39:07;1.60;97.90
8340;DHT22;4207;49.314;7.162;2023-02-26T16:41:40;1.50;98.00
8340;DHT22;4207;49.314;7.162;2023-02-26T16:47:13;1.30;98.30
8340;DHT22;4207;49.314;7.162;2023-02-26T16:49:42;1.30;98.30
8340;DHT22;4207;49.314;7.162;2023-02-26T16:52:20;1.30;98.30
8340;DHT22;4207;49.314;7.162;2023-02-26T16:54:54;1.20;98.60
8340;DHT22;4207;49.314;7.162;2023-02-26T16:57:26;1.20;98.70
8340;DHT22;4207;49.314;7.162;2023-02-26T16:59:58;1.10;98.60
8340;DHT22;4207;49.314;7.162;2023-02-26T17:02:31;1.10;98.60
8340;DHT22;4207;49.314;7.162;2023-02-26T17:05:13;1.10;98.70
8340;DHT22;4207;49.314;7.162;2023-02-26T17:07:48;1.10;98.50
8340;DHT22;4207;49.314;7.162;2023-02-26T17:10:24;1.10;98.70